sensor_id;sensor_type;location;lat;lon;timestamp;temperature;humidity
65559;DHT22;52203;51.998;5.140;2022-10-17T00:00:25;7.20;118.99
65559;DHT22;52203;51.998;5.140;2022-10-17T00:02:54;7.19;118.99
65559;DHT22;52203;51.998;5.140;2022-10-17T00:05:20;7.24;118.99
65559;DHT22;52203;51.998;5.140;2022-10-17T00:07:45;7.17;118.99
65559;DHT22;52203;51.998;5.140;2022-10-17T00:10:11;7.16;118.99
65559;DHT22;52203;51.998;5.140;2022-10-17T00:12:36;7.24;118.99
65559;DHT22;52203;51.998;5.140;2022-10-17T00:15:04;7.26;118.99
65559;DHT22;52203;51.998;5.140;2022-10-17T00:17:30;7.32;118.99
65559;DHT22;52203;51.998;5.140;2022-10-17T00:19:58;7.30;118.99
65559;DHT22;52203;51.998;5.140;2022-10-17T00:22:24;7.27;118.99
65559;DHT22;52203;51.998;5.140;2022-10-17T00:24:49;7.28;118.99
65559;DHT22;52203;51.998;5.140;2022-10-17T00:27:15;7.32;118.99
65559;DHT22;52203;51.998;5.140;2022-10-17T00:29:40;7.38;118.99
65559;DHT22;52203;51.998;5.140;2022-10-17T00:32:06;7.38;118.99
65559;DHT22;52203;51.998;5.140;2022-10-17T00:34:31;7.32;118.99
65559;DHT22;52203;51.998;5.140;2022-10-17T00:36:57;7.34;118.99
65559;DHT22;52203;51.998;5.140;2022-10-17T00:39:23;7.25;118.99
65559;DHT22;52203;51.998;5.140;2022-10-17T00:41:48;7.38;118.99
65559;DHT22;52203;51.998;5.140;2022-10-17T00:46:58;7.38;118.99
65559;DHT22;52203;51.998;5.140;2022-10-17T00:49:26;7.41;118.99
65559;DHT22;52203;51.998;5.140;2022-10-17T00:51:56;7.33;118.99
65559;DHT22;52203;51.998;5.140;2022-10-17T00:54:26;7.44;118.99
65559;DHT22;52203;51.998;5.140;2022-10-17T00:56:53;7.39;118.99
65559;DHT22;52203;51.998;5.140;2022-10-17T00:59:19;7.38;118.99
65559;DHT22;52203;51.998;5.140;2022-10-17T01:02:00;7.41;118.99
65559;DHT22;52203;51.998;5.140;2022-10-17T01:04:26;7.34;118.99
65559;DHT22;52203;51.998;5.140;2022-10-17T01:06:51;7.32;118.99
65559;DHT22;52203;51.998;5.140;2022-10-17T01:09:17;7.40;118.99
65559;DHT22;52203;51.998;5.140;2022-10-17T01:15:12;7.38;118.99
65559;DHT22;52203;51.998;5.140;2022-10-17T01:26:51;7.27;118.99
65559;DHT22;52203;51.998;5.140;2022-10-17T01:29:37;7.27;118.99
65559;DHT22;52203;51.998;5.140;2022-10-17T01:34:47;7.38;118.99
65559;DHT22;52203;51.998;5.140;2022-10-17T01:37:32;7.32;118.99
65559;DHT22;52203;51.998;5.140;2022-10-17T01:40:07;7.30;118.99
65559;DHT22;52203;51.998;5.140;2022-10-17T01:45:17;7.33;118.99
65559;DHT22;52203;51.998;5.140;2022-10-17T01:47:45;7.38;118.99
65559;DHT22;52203;51.998;5.140;2022-10-17T01:50:18;7.45;118.99
65559;DHT22;52203;51.998;5.140;2022-10-17T01:52:51;7.40;118.99
65559;DHT22;52203;51.998;5.140;2022-10-17T01:55:21;7.49;118.99
65559;DHT22;52203;51.998;5.140;2022-10-17T01:57:54;7.53;118.99
65559;DHT22;52203;51.998;5.140;2022-10-17T02:00:22;7.56;118.99
65559;DHT22;52203;51.998;5.140;2022-10-17T02:02:52;7.62;118.99
65559;DHT22;52203;51.998;5.140;2022-10-17T02:05:21;7.70;118.99
65559;DHT22;52203;51.998;5.140;2022-10-17T02:07:49;7.69;118.99
65559;DHT22;52203;51.998;5.140;2022-10-17T02:10:28;7.75;118.99
65559;DHT22;52203;51.998;5.140;2022-10-17T02:13:03;7.86;118.99
65559;DHT22;52203;51.998;5.140;2022-10-17T02:18:41;7.85;118.99
65559;DHT22;52203;51.998;5.140;2022-10-17T02:22:00;7.82;118.99
65559;DHT22;52203;51.998;5.140;2022-10-17T02:24:17;7.85;118.99
65559;DHT22;52203;51.998;5.140;2022-10-17T02:29:30;7.67;118.99
65559;DHT22;52203;51.998;5.140;2022-10-17T02:32:03;7.63;118.99
65559;DHT22;52203;51.998;5.140;2022-10-17T02:34:48;7.62;118.99
65559;DHT22;52203;51.998;5.140;2022-10-17T02:37:18;7.60;118.99
65559;DHT22;52203;51.998;5.140;2022-10-17T02:39:46;7.60;118.99
65559;DHT22;52203;51.998;5.140;2022-10-17T02:42:13;7.65;118.99
65559;DHT22;52203;51.998;5.140;2022-10-17T02:44:41;7.74;118.99
65559;DHT22;52203;51.998;5.140;2022-10-17T02:48:01;7.97;118.99
65559;DHT22;52203;51.998;5.140;2022-10-17T02:53:49;7.97;118.99
65559;DHT22;52203;51.998;5.140;2022-10-17T02:56:18;8.07;118.99
65559;DHT22;52203;51.998;5.140;2022-10-17T02:58:49;8.04;118.99
65559;DHT22;52203;51.998;5.140;2022-10-17T03:01:16;7.96;118.99
65559;DHT22;52203;51.998;5.140;2022-10-17T03:03:42;8.07;118.99
65559;DHT22;52203;51.998;5.140;2022-10-17T03:06:07;8.28;118.99
65559;DHT22;52203;51.998;5.140;2022-10-17T03:08:33;8.22;118.99
65559;DHT22;52203;51.998;5.140;2022-10-17T03:10:58;8.35;118.99
65559;DHT22;52203;51.998;5.140;2022-10-17T03:13:24;8.43;118.99
65559;DHT22;52203;51.998;5.140;2022-10-17T03:15:49;8.52;118.99
65559;DHT22;52203;51.998;5.140;2022-10-17T03:18:15;8.47;118.99
65559;DHT22;52203;51.998;5.140;2022-10-17T03:20:41;8.59;118.99
65559;DHT22;52203;51.998;5.140;2022-10-17T03:23:06;8.44;118.99
65559;DHT22;52203;51.998;5.140;2022-10-17T03:25:32;8.53;118.99
65559;DHT22;52203;51.998;5.140;2022-10-17T03:27:58;8.63;118.99
65559;DHT22;52203;51.998;5.140;2022-10-17T03:30:27;8.64;118.99
65559;DHT22;52203;51.998;5.140;2022-10-17T03:32:53;8.73;118.99
65559;DHT22;52203;51.998;5.140;2022-10-17T03:35:19;8.70;118.99
65559;DHT22;52203;51.998;5.140;2022-10-17T03:37:44;8.71;118.99
65559;DHT22;52203;51.998;5.140;2022-10-17T03:40:10;8.76;118.99
65559;DHT22;52203;51.998;5.140;2022-10-17T03:42:35;8.67;118.99
65559;DHT22;52203;51.998;5.140;2022-10-17T03:45:01;8.78;118.99
65559;DHT22;52203;51.998;5.140;2022-10-17T03:47:27;8.80;118.99
65559;DHT22;52203;51.998;5.140;2022-10-17T03:49:53;8.68;118.99
65559;DHT22;52203;51.998;5.140;2022-10-17T03:52:19;8.68;118.99
65559;DHT22;52203;51.998;5.140;2022-10-17T03:54:44;8.68;118.99
65559;DHT22;52203;51.998;5.140;2022-10-17T03:57:10;8.70;118.99
65559;DHT22;52203;51.998;5.140;2022-10-17T03:59:35;8.74;118.99
65559;DHT22;52203;51.998;5.140;2022-10-17T04:02:01;8.87;118.99
65559;DHT22;52203;51.998;5.140;2022-10-17T04:04:26;8.85;118.99
65559;DHT22;52203;51.998;5.140;2022-10-17T04:06:52;8.77;118.99
65559;DHT22;52203;51.998;5.140;2022-10-17T04:09:18;8.71;118.99
65559;DHT22;52203;51.998;5.140;2022-10-17T04:11:43;8.74;118.99
65559;DHT22;52203;51.998;5.140;2022-10-17T04:14:09;8.66;118.99
65559;DHT22;52203;51.998;5.140;2022-10-17T04:16:35;8.60;118.99
65559;DHT22;52203;51.998;5.140;2022-10-17T04:19:01;8.70;118.99
65559;DHT22;52203;51.998;5.140;2022-10-17T04:21:28;8.70;118.99
65559;DHT22;52203;51.998;5.140;2022-10-17T04:23:58;8.68;118.99
65559;DHT22;52203;51.998;5.140;2022-10-17T04:26:24;8.57;118.99
65559;DHT22;52203;51.998;5.140;2022-10-17T04:28:50;8.70;118.99
65559;DHT22;52203;51.998;5.140;2022-10-17T04:31:16;8.82;118.99
65559;DHT22;52203;51.998;5.140;2022-10-17T04:33:45;8.86;118.99
65559;DHT22;52203;51.998;5.140;2022-10-17T04:36:13;8.77;118.99
65559;DHT22;52203;51.998;5.140;2022-10-17T04:38:38;8.85;118.99
65559;DHT22;52203;51.998;5.140;2022-10-17T04:41:06;8.86;118.99
65559;DHT22;52203;51.998;5.140;2022-10-17T04:43:34;8.89;118.99
65559;DHT22;52203;51.998;5.140;2022-10-17T04:46:01;8.95;118.99
65559;DHT22;52203;51.998;5.140;2022-10-17T04:48:28;8.90;118.99
65559;DHT22;52203;51.998;5.140;2022-10-17T04:50:55;8.86;118.99
65559;DHT22;52203;51.998;5.140;2022-10-17T04:53:22;8.94;118.99
65559;DHT22;52203;51.998;5.140;2022-10-17T04:55:48;8.90;118.99
65559;DHT22;52203;51.998;5.140;2022-10-17T04:58:13;8.88;118.99
65559;DHT22;52203;51.998;5.140;2022-10-17T05:00:39;8.91;118.99
65559;DHT22;52203;51.998;5.140;2022-10-17T05:03:04;8.87;118.99
65559;DHT22;52203;51.998;5.140;2022-10-17T05:05:30;8.92;118.99
65559;DHT22;52203;51.998;5.140;2022-10-17T05:07:55;8.82;118.99
65559;DHT22;52203;51.998;5.140;2022-10-17T05:10:21;8.88;118.99
65559;DHT22;52203;51.998;5.140;2022-10-17T05:12:47;8.91;118.99
65559;DHT22;52203;51.998;5.140;2022-10-17T05:15:13;8.98;118.99
65559;DHT22;52203;51.998;5.140;2022-10-17T05:17:39;8.98;118.99
65559;DHT22;52203;51.998;5.140;2022-10-17T05:20:05;9.16;118.99
65559;DHT22;52203;51.998;5.140;2022-10-17T05:22:30;8.97;118.99
65559;DHT22;52203;51.998;5.140;2022-10-17T05:24:56;9.11;118.99
65559;DHT22;52203;51.998;5.140;2022-10-17T05:27:21;9.15;118.99
65559;DHT22;52203;51.998;5.140;2022-10-17T05:29:47;9.04;118.99
65559;DHT22;52203;51.998;5.140;2022-10-17T05:32:14;9.07;118.99
65559;DHT22;52203;51.998;5.140;2022-10-17T05:34:40;9.12;118.99
65559;DHT22;52203;51.998;5.140;2022-10-17T05:37:05;9.14;118.99
65559;DHT22;52203;51.998;5.140;2022-10-17T05:39:31;9.12;118.99
65559;DHT22;52203;51.998;5.140;2022-10-17T05:41:57;9.06;118.99
65559;DHT22;52203;51.998;5.140;2022-10-17T05:44:22;9.10;118.99
65559;DHT22;52203;51.998;5.140;2022-10-17T05:46:48;9.22;118.99
65559;DHT22;52203;51.998;5.140;2022-10-17T05:49:14;9.19;118.99
65559;DHT22;52203;51.998;5.140;2022-10-17T05:51:40;9.26;118.99
65559;DHT22;52203;51.998;5.140;2022-10-17T05:54:05;9.20;118.99
65559;DHT22;52203;51.998;5.140;2022-10-17T05:56:32;9.09;118.99
65559;DHT22;52203;51.998;5.140;2022-10-17T05:58:58;9.18;118.99
65559;DHT22;52203;51.998;5.140;2022-10-17T06:01:23;9.26;118.99
65559;DHT22;52203;51.998;5.140;2022-10-17T06:03:49;9.19;118.99
65559;DHT22;52203;51.998;5.140;2022-10-17T06:06:16;9.21;118.99
65559;DHT22;52203;51.998;5.140;2022-10-17T06:08:42;9.08;118.99
65559;DHT22;52203;51.998;5.140;2022-10-17T06:11:09;9.25;118.99
65559;DHT22;52203;51.998;5.140;2022-10-17T06:13:35;9.18;118.99
65559;DHT22;52203;51.998;5.140;2022-10-17T06:16:00;9.15;118.99
65559;DHT22;52203;51.998;5.140;2022-10-17T06:18:26;9.25;118.99
65559;DHT22;52203;51.998;5.140;2022-10-17T06:20:52;9.18;118.99
65559;DHT22;52203;51.998;5.140;2022-10-17T06:23:18;9.12;118.99
65559;DHT22;52203;51.998;5.140;2022-10-17T06:25:43;9.27;118.99
65559;DHT22;52203;51.998;5.140;2022-10-17T06:28:09;9.27;118.99
65559;DHT22;52203;51.998;5.140;2022-10-17T06:30:40;9.30;118.99
65559;DHT22;52203;51.998;5.140;2022-10-17T06:33:06;9.32;118.99
65559;DHT22;52203;51.998;5.140;2022-10-17T06:35:31;9.35;118.99
65559;DHT22;52203;51.998;5.140;2022-10-17T06:37:57;9.46;118.99
65559;DHT22;52203;51.998;5.140;2022-10-17T06:40:22;9.41;118.99
65559;DHT22;52203;51.998;5.140;2022-10-17T06:42:48;9.38;118.99
65559;DHT22;52203;51.998;5.140;2022-10-17T06:45:13;9.59;118.99
65559;DHT22;52203;51.998;5.140;2022-10-17T06:47:39;9.51;118.99
65559;DHT22;52203;51.998;5.140;2022-10-17T06:50:05;9.42;118.99
65559;DHT22;52203;51.998;5.140;2022-10-17T06:52:31;9.36;118.99
65559;DHT22;52203;51.998;5.140;2022-10-17T06:54:56;9.39;118.99
65559;DHT22;52203;51.998;5.140;2022-10-17T06:57:22;9.47;118.99
65559;DHT22;52203;51.998;5.140;2022-10-17T06:59:48;9.38;118.99
65559;DHT22;52203;51.998;5.140;2022-10-17T07:02:13;9.52;118.99
65559;DHT22;52203;51.998;5.140;2022-10-17T07:04:39;9.53;118.99
65559;DHT22;52203;51.998;5.140;2022-10-17T07:07:04;9.45;118.99
65559;DHT22;52203;51.998;5.140;2022-10-17T07:09:30;9.39;118.99
65559;DHT22;52203;51.998;5.140;2022-10-17T07:11:57;9.42;118.99
65559;DHT22;52203;51.998;5.140;2022-10-17T07:14:23;9.42;118.99
65559;DHT22;52203;51.998;5.140;2022-10-17T07:16:56;9.46;118.99
65559;DHT22;52203;51.998;5.140;2022-10-17T07:19:22;9.41;118.99
65559;DHT22;52203;51.998;5.140;2022-10-17T07:21:48;9.39;118.99
65559;DHT22;52203;51.998;5.140;2022-10-17T07:24:14;9.46;118.99
65559;DHT22;52203;51.998;5.140;2022-10-17T07:26:39;9.42;118.99
65559;DHT22;52203;51.998;5.140;2022-10-17T07:29:05;9.54;118.99
65559;DHT22;52203;51.998;5.140;2022-10-17T07:31:32;9.90;118.99
65559;DHT22;52203;51.998;5.140;2022-10-17T07:34:01;9.79;118.99
65559;DHT22;52203;51.998;5.140;2022-10-17T07:36:27;9.75;118.99
65559;DHT22;52203;51.998;5.140;2022-10-17T07:38:52;9.93;118.99
65559;DHT22;52203;51.998;5.140;2022-10-17T07:41:18;10.03;118.99
65559;DHT22;52203;51.998;5.140;2022-10-17T07:43:44;9.98;118.99
65559;DHT22;52203;51.998;5.140;2022-10-17T07:46:10;9.91;118.99
65559;DHT22;52203;51.998;5.140;2022-10-17T07:48:36;10.22;118.99
65559;DHT22;52203;51.998;5.140;2022-10-17T07:51:05;10.21;118.99
65559;DHT22;52203;51.998;5.140;2022-10-17T07:53:31;9.98;118.99
65559;DHT22;52203;51.998;5.140;2022-10-17T07:56:03;10.26;118.99
65559;DHT22;52203;51.998;5.140;2022-10-17T07:58:28;10.14;118.99
65559;DHT22;52203;51.998;5.140;2022-10-17T08:00:59;10.25;118.99
65559;DHT22;52203;51.998;5.140;2022-10-17T08:03:25;10.51;118.99
65559;DHT22;52203;51.998;5.140;2022-10-17T08:05:50;10.19;118.99
65559;DHT22;52203;51.998;5.140;2022-10-17T08:08:16;10.21;118.99
65559;DHT22;52203;51.998;5.140;2022-10-17T08:10:42;10.34;118.99
65559;DHT22;52203;51.998;5.140;2022-10-17T08:13:07;10.62;118.99
65559;DHT22;52203;51.998;5.140;2022-10-17T08:15:35;10.73;118.99
65559;DHT22;52203;51.998;5.140;2022-10-17T08:18:01;10.65;118.99
65559;DHT22;52203;51.998;5.140;2022-10-17T08:20:27;10.65;118.99
65559;DHT22;52203;51.998;5.140;2022-10-17T08:22:53;10.67;118.99
65559;DHT22;52203;51.998;5.140;2022-10-17T08:25:20;10.55;118.99
65559;DHT22;52203;51.998;5.140;2022-10-17T08:27:45;10.50;118.99
65559;DHT22;52203;51.998;5.140;2022-10-17T08:30:11;10.40;118.99
65559;DHT22;52203;51.998;5.140;2022-10-17T08:32:37;10.56;118.99
65559;DHT22;52203;51.998;5.140;2022-10-17T08:35:02;10.69;118.99
65559;DHT22;52203;51.998;5.140;2022-10-17T08:37:28;10.64;118.99
65559;DHT22;52203;51.998;5.140;2022-10-17T08:39:54;10.60;118.99
65559;DHT22;52203;51.998;5.140;2022-10-17T08:47:59;10.39;118.99
65559;DHT22;52203;51.998;5.140;2022-10-17T08:50:42;10.35;118.99
65559;DHT22;52203;51.998;5.140;2022-10-17T08:53:20;10.43;118.99
65559;DHT22;52203;51.998;5.140;2022-10-17T08:55:52;10.34;118.99
65559;DHT22;52203;51.998;5.140;2022-10-17T09:06:21;10.48;118.99
65559;DHT22;52203;51.998;5.140;2022-10-17T09:18:18;10.71;118.99
65559;DHT22;52203;51.998;5.140;2022-10-17T09:20:50;10.77;118.99
65559;DHT22;52203;51.998;5.140;2022-10-17T09:23:22;10.79;118.99
65559;DHT22;52203;51.998;5.140;2022-10-17T09:25:52;10.66;118.99
65559;DHT22;52203;51.998;5.140;2022-10-17T09:28:33;10.68;118.99
65559;DHT22;52203;51.998;5.140;2022-10-17T09:31:03;10.63;118.99
65559;DHT22;52203;51.998;5.140;2022-10-17T09:33:34;10.57;118.99
65559;DHT22;52203;51.998;5.140;2022-10-17T09:36:04;10.63;118.99
65559;DHT22;52203;51.998;5.140;2022-10-17T09:38:38;10.64;118.99
65559;DHT22;52203;51.998;5.140;2022-10-17T09:41:06;10.68;118.99
65559;DHT22;52203;51.998;5.140;2022-10-17T09:43:38;10.77;118.99
65559;DHT22;52203;51.998;5.140;2022-10-17T09:46:04;10.70;118.99
65559;DHT22;52203;51.998;5.140;2022-10-17T09:48:40;10.70;118.99
65559;DHT22;52203;51.998;5.140;2022-10-17T09:51:07;10.72;118.99
65559;DHT22;52203;51.998;5.140;2022-10-17T09:53:39;10.66;118.99
65559;DHT22;52203;51.998;5.140;2022-10-17T09:56:15;10.70;118.99
65559;DHT22;52203;51.998;5.140;2022-10-17T09:58:49;10.64;118.99
65559;DHT22;52203;51.998;5.140;2022-10-17T10:01:27;10.68;118.99
65559;DHT22;52203;51.998;5.140;2022-10-17T10:04:14;10.74;118.99
65559;DHT22;52203;51.998;5.140;2022-10-17T10:06:59;10.84;118.99
65559;DHT22;52203;51.998;5.140;2022-10-17T10:09:27;10.80;118.99
65559;DHT22;52203;51.998;5.140;2022-10-17T10:11:56;10.70;118.99
65559;DHT22;52203;51.998;5.140;2022-10-17T10:14:34;10.64;118.99
65559;DHT22;52203;51.998;5.140;2022-10-17T10:17:01;10.66;118.99
65559;DHT22;52203;51.998;5.140;2022-10-17T10:19:35;10.63;118.99
65559;DHT22;52203;51.998;5.140;2022-10-17T10:22:03;10.65;118.99
65559;DHT22;52203;51.998;5.140;2022-10-17T10:24:29;10.68;118.99
65559;DHT22;52203;51.998;5.140;2022-10-17T10:26:58;10.78;118.99
65559;DHT22;52203;51.998;5.140;2022-10-17T10:29:31;10.71;118.99
65559;DHT22;52203;51.998;5.140;2022-10-17T10:32:33;10.79;118.99
65559;DHT22;52203;51.998;5.140;2022-10-17T10:35:20;10.83;118.99
65559;DHT22;52203;51.998;5.140;2022-10-17T10:37:51;10.87;118.99
65559;DHT22;52203;51.998;5.140;2022-10-17T10:40:26;10.82;118.99
65559;DHT22;52203;51.998;5.140;2022-10-17T10:42:55;10.85;118.99
65559;DHT22;52203;51.998;5.140;2022-10-17T10:48:17;10.95;118.99
65559;DHT22;52203;51.998;5.140;2022-10-17T10:51:08;10.94;118.99
65559;DHT22;52203;51.998;5.140;2022-10-17T10:53:51;10.96;118.99
65559;DHT22;52203;51.998;5.140;2022-10-17T11:07:00;11.11;118.99
65559;DHT22;52203;51.998;5.140;2022-10-17T11:09:51;10.88;118.99
65559;DHT22;52203;51.998;5.140;2022-10-17T11:12:30;10.83;118.99
65559;DHT22;52203;51.998;5.140;2022-10-17T11:17:59;10.72;118.99
65559;DHT22;52203;51.998;5.140;2022-10-17T11:20:52;10.67;118.99
65559;DHT22;52203;51.998;5.140;2022-10-17T11:23:41;10.62;118.99
65559;DHT22;52203;51.998;5.140;2022-10-17T11:26:18;10.65;118.99
65559;DHT22;52203;51.998;5.140;2022-10-17T11:28:51;10.65;118.99
65559;DHT22;52203;51.998;5.140;2022-10-17T11:31:19;10.66;118.99
65559;DHT22;52203;51.998;5.140;2022-10-17T11:33:53;10.68;118.99
65559;DHT22;52203;51.998;5.140;2022-10-17T11:36:27;10.72;118.99
65559;DHT22;52203;51.998;5.140;2022-10-17T11:39:04;10.73;118.99
65559;DHT22;52203;51.998;5.140;2022-10-17T11:41:47;10.73;118.99
65559;DHT22;52203;51.998;5.140;2022-10-17T11:47:00;10.74;118.99
65559;DHT22;52203;51.998;5.140;2022-10-17T11:49:33;10.80;118.99
65559;DHT22;52203;51.998;5.140;2022-10-17T11:54:53;10.90;118.99
65559;DHT22;52203;51.998;5.140;2022-10-17T12:06:07;11.07;118.99
65559;DHT22;52203;51.998;5.140;2022-10-17T12:11:17;11.09;118.99
65559;DHT22;52203;51.998;5.140;2022-10-17T12:13:48;11.20;118.99
65559;DHT22;52203;51.998;5.140;2022-10-17T12:18:47;11.42;118.99
65559;DHT22;52203;51.998;5.140;2022-10-17T12:21:13;11.41;118.99
65559;DHT22;52203;51.998;5.140;2022-10-17T12:23:39;11.41;118.99
65559;DHT22;52203;51.998;5.140;2022-10-17T12:26:07;11.32;118.99
65559;DHT22;52203;51.998;5.140;2022-10-17T12:33:56;11.26;118.99
65559;DHT22;52203;51.998;5.140;2022-10-17T12:46:50;11.01;118.99
65559;DHT22;52203;51.998;5.140;2022-10-17T12:49:36;11.02;118.99
65559;DHT22;52203;51.998;5.140;2022-10-17T12:52:15;10.99;118.99
65559;DHT22;52203;51.998;5.140;2022-10-17T12:54:54;10.97;118.99
65559;DHT22;52203;51.998;5.140;2022-10-17T12:57:40;10.95;118.99
65559;DHT22;52203;51.998;5.140;2022-10-17T13:00:30;11.00;118.99
65559;DHT22;52203;51.998;5.140;2022-10-17T13:03:04;11.08;118.99
65559;DHT22;52203;51.998;5.140;2022-10-17T13:05:33;11.18;118.99
65559;DHT22;52203;51.998;5.140;2022-10-17T13:08:01;11.28;118.99
65559;DHT22;52203;51.998;5.140;2022-10-17T13:10:30;11.28;118.99
65559;DHT22;52203;51.998;5.140;2022-10-17T13:13:46;11.34;118.99
65559;DHT22;52203;51.998;5.140;2022-10-17T13:15:54;11.42;118.99
65559;DHT22;52203;51.998;5.140;2022-10-17T13:18:25;11.45;118.99
65559;DHT22;52203;51.998;5.140;2022-10-17T13:21:05;11.43;118.99
65559;DHT22;52203;51.998;5.140;2022-10-17T13:23:34;11.46;118.99
65559;DHT22;52203;51.998;5.140;2022-10-17T13:26:26;11.43;118.99
65559;DHT22;52203;51.998;5.140;2022-10-17T13:29:05;11.48;118.99
65559;DHT22;52203;51.998;5.140;2022-10-17T13:31:36;11.47;118.99
65559;DHT22;52203;51.998;5.140;2022-10-17T13:34:15;11.46;118.99
65559;DHT22;52203;51.998;5.140;2022-10-17T13:36:42;11.43;118.99
65559;DHT22;52203;51.998;5.140;2022-10-17T13:39:11;11.42;118.99
65559;DHT22;52203;51.998;5.140;2022-10-17T13:41:38;11.41;118.99
65559;DHT22;52203;51.998;5.140;2022-10-17T13:44:17;11.40;118.99
65559;DHT22;52203;51.998;5.140;2022-10-17T13:46:44;11.40;118.99
65559;DHT22;52203;51.998;5.140;2022-10-17T13:49:32;11.32;118.99
65559;DHT22;52203;51.998;5.140;2022-10-17T13:52:00;11.34;118.99
65559;DHT22;52203;51.998;5.140;2022-10-17T13:56:56;11.33;118.99
65559;DHT22;52203;51.998;5.140;2022-10-17T13:59:31;11.38;118.99
65559;DHT22;52203;51.998;5.140;2022-10-17T14:01:59;11.46;118.99
65559;DHT22;52203;51.998;5.140;2022-10-17T14:04:26;11.45;118.99
65559;DHT22;52203;51.998;5.140;2022-10-17T14:06:52;11.49;118.99
65559;DHT22;52203;51.998;5.140;2022-10-17T14:09:23;11.53;118.99
65559;DHT22;52203;51.998;5.140;2022-10-17T14:12:08;11.57;118.99
65559;DHT22;52203;51.998;5.140;2022-10-17T14:14:38;11.63;118.99
65559;DHT22;52203;51.998;5.140;2022-10-17T14:17:24;11.76;118.99
65559;DHT22;52203;51.998;5.140;2022-10-17T14:20:00;11.88;118.99
65559;DHT22;52203;51.998;5.140;2022-10-17T14:22:28;11.72;118.99
65559;DHT22;52203;51.998;5.140;2022-10-17T14:24:55;11.81;118.99
65559;DHT22;52203;51.998;5.140;2022-10-17T14:28:00;11.88;118.99
65559;DHT22;52203;51.998;5.140;2022-10-17T14:30:45;11.84;118.99
65559;DHT22;52203;51.998;5.140;2022-10-17T14:33:20;11.84;118.99
65559;DHT22;52203;51.998;5.140;2022-10-17T14:35:50;11.88;118.99
65559;DHT22;52203;51.998;5.140;2022-10-17T14:38:17;11.90;118.99
65559;DHT22;52203;51.998;5.140;2022-10-17T14:40:57;11.92;118.99
65559;DHT22;52203;51.998;5.140;2022-10-17T14:43:25;11.91;118.99
65559;DHT22;52203;51.998;5.140;2022-10-17T14:45:55;11.90;118.99
65559;DHT22;52203;51.998;5.140;2022-10-17T14:48:22;11.74;118.99
65559;DHT22;52203;51.998;5.140;2022-10-17T14:53:35;11.56;118.99
65559;DHT22;52203;51.998;5.140;2022-10-17T14:56:22;11.52;118.99
65559;DHT22;52203;51.998;5.140;2022-10-17T14:58:48;11.47;118.99
65559;DHT22;52203;51.998;5.140;2022-10-17T15:01:14;11.42;118.99
65559;DHT22;52203;51.998;5.140;2022-10-17T15:03:39;11.41;118.99
65559;DHT22;52203;51.998;5.140;2022-10-17T15:06:18;11.37;118.99
65559;DHT22;52203;51.998;5.140;2022-10-17T15:08:44;11.30;118.99
65559;DHT22;52203;51.998;5.140;2022-10-17T15:11:10;11.37;118.99
65559;DHT22;52203;51.998;5.140;2022-10-17T15:13:36;11.38;118.99
65559;DHT22;52203;51.998;5.140;2022-10-17T15:16:05;11.37;118.99
65559;DHT22;52203;51.998;5.140;2022-10-17T15:18:31;11.40;118.99
65559;DHT22;52203;51.998;5.140;2022-10-17T15:20:56;11.41;118.99
65559;DHT22;52203;51.998;5.140;2022-10-17T15:23:22;11.42;118.99
65559;DHT22;52203;51.998;5.140;2022-10-17T15:25:47;11.41;118.99
65559;DHT22;52203;51.998;5.140;2022-10-17T15:28:13;11.40;118.99
65559;DHT22;52203;51.998;5.140;2022-10-17T15:30:38;11.32;118.99
65559;DHT22;52203;51.998;5.140;2022-10-17T15:33:04;11.30;118.99
65559;DHT22;52203;51.998;5.140;2022-10-17T15:35:30;11.27;118.99
65559;DHT22;52203;51.998;5.140;2022-10-17T15:37:55;11.18;118.99
65559;DHT22;52203;51.998;5.140;2022-10-17T15:40:27;11.17;118.99
65559;DHT22;52203;51.998;5.140;2022-10-17T15:42:55;11.12;118.99
65559;DHT22;52203;51.998;5.140;2022-10-17T15:45:22;11.05;118.99
65559;DHT22;52203;51.998;5.140;2022-10-17T15:47:53;11.03;118.99
65559;DHT22;52203;51.998;5.140;2022-10-17T15:50:19;10.99;118.99
65559;DHT22;52203;51.998;5.140;2022-10-17T15:52:46;10.97;118.99
65559;DHT22;52203;51.998;5.140;2022-10-17T15:55:13;10.94;118.99
65559;DHT22;52203;51.998;5.140;2022-10-17T15:57:40;10.93;118.99
65559;DHT22;52203;51.998;5.140;2022-10-17T16:00:15;10.88;118.99
65559;DHT22;52203;51.998;5.140;2022-10-17T16:02:41;10.84;118.99
65559;DHT22;52203;51.998;5.140;2022-10-17T16:07:42;10.84;118.99
65559;DHT22;52203;51.998;5.140;2022-10-17T16:10:10;10.80;118.99
65559;DHT22;52203;51.998;5.140;2022-10-17T16:12:36;10.80;118.99
65559;DHT22;52203;51.998;5.140;2022-10-17T16:15:24;10.77;118.99
65559;DHT22;52203;51.998;5.140;2022-10-17T16:17:51;10.77;118.99
65559;DHT22;52203;51.998;5.140;2022-10-17T16:20:18;10.88;118.99
65559;DHT22;52203;51.998;5.140;2022-10-17T16:22:44;10.65;118.99
65559;DHT22;52203;51.998;5.140;2022-10-17T16:25:30;10.70;118.99
65559;DHT22;52203;51.998;5.140;2022-10-17T16:27:58;10.68;118.99
65559;DHT22;52203;51.998;5.140;2022-10-17T16:30:28;10.68;118.99
65559;DHT22;52203;51.998;5.140;2022-10-17T16:32:54;10.75;118.99
65559;DHT22;52203;51.998;5.140;2022-10-17T16:35:25;10.99;118.99
65559;DHT22;52203;51.998;5.140;2022-10-17T16:37:51;10.84;118.99
65559;DHT22;52203;51.998;5.140;2022-10-17T16:40:17;11.42;118.99
65559;DHT22;52203;51.998;5.140;2022-10-17T16:42:43;10.59;118.99
65559;DHT22;52203;51.998;5.140;2022-10-17T16:45:18;10.42;118.99
65559;DHT22;52203;51.998;5.140;2022-10-17T16:47:44;10.37;118.99
65559;DHT22;52203;51.998;5.140;2022-10-17T16:50:10;10.36;118.99
65559;DHT22;52203;51.998;5.140;2022-10-17T16:52:36;10.40;118.99
65559;DHT22;52203;51.998;5.140;2022-10-17T16:55:01;10.40;118.99
65559;DHT22;52203;51.998;5.140;2022-10-17T16:57:27;10.34;118.99
65559;DHT22;52203;51.998;5.140;2022-10-17T16:59:52;10.29;118.99
65559;DHT22;52203;51.998;5.140;2022-10-17T17:02:18;10.30;118.99
65559;DHT22;52203;51.998;5.140;2022-10-17T17:04:43;10.22;118.99
65559;DHT22;52203;51.998;5.140;2022-10-17T17:07:09;10.19;118.99
65559;DHT22;52203;51.998;5.140;2022-10-17T17:09:35;10.16;118.99
65559;DHT22;52203;51.998;5.140;2022-10-17T17:12:00;10.06;118.99
65559;DHT22;52203;51.998;5.140;2022-10-17T17:14:26;10.05;118.99
65559;DHT22;52203;51.998;5.140;2022-10-17T17:16:51;10.06;118.99
65559;DHT22;52203;51.998;5.140;2022-10-17T17:19:17;10.12;118.99
65559;DHT22;52203;51.998;5.140;2022-10-17T17:21:43;10.03;118.99
65559;DHT22;52203;51.998;5.140;2022-10-17T17:24:14;10.07;118.99
65559;DHT22;52203;51.998;5.140;2022-10-17T17:26:41;9.91;118.99
65559;DHT22;52203;51.998;5.140;2022-10-17T17:29:07;9.85;118.99